createdAt,value
2019-05-01T00:01:40.259Z,99.99
2019-05-01T00:12:39.382Z,99.99
2019-05-01T00:23:40.416Z,99.99
2019-05-01T00:34:43.582Z,99.99
2019-05-01T00:45:43.416Z,99.99
2019-05-01T00:56:46.452Z,99.99
2019-05-01T01:07:43.674Z,99.99
2019-05-01T01:18:43.446Z,99.99
2019-05-01T01:29:47.249Z,99.99
2019-05-01T01:40:47.396Z,99.99
2019-05-01T01:51:47.739Z,99.99
2019-05-01T02:02:51.938Z,99.99
2019-05-01T02:13:49.303Z,99.99
2019-05-01T02:24:51.489Z,99.99
2019-05-01T02:35:53.583Z,99.99
2019-05-01T02:46:56.351Z,99.99
2019-05-01T02:57:57.410Z,99.99
2019-05-01T03:08:57.240Z,99.99
2019-05-01T03:19:54.761Z,99.99
2019-05-01T03:30:56.473Z,99.99
2019-05-01T03:41:53.533Z,99.99
2019-05-01T03:52:51.025Z,99.99
2019-05-01T04:03:55.533Z,99.99
2019-05-01T04:14:58.798Z,99.99
2019-05-01T04:25:56.692Z,99.99
2019-05-01T04:37:01.029Z,99.99
2019-05-01T04:47:57.366Z,99.99
2019-05-01T04:59:02.176Z,99.99
2019-05-01T05:10:00.073Z,99.99
2019-05-01T05:20:59.806Z,99.99
2019-05-01T05:32:05.402Z,99.99
2019-05-01T05:43:03.746Z,99.99
2019-05-01T05:54:02.977Z,99.99
2019-05-01T06:05:07.714Z,99.99
2019-05-01T06:16:06.136Z,99.99
2019-05-01T06:27:08.804Z,99.99
2019-05-01T06:38:12.493Z,99.99
2019-05-01T06:49:16.271Z,99.99
2019-05-01T07:00:18.924Z,99.99
2019-05-01T07:11:22.050Z,98.36
2019-05-01T07:22:19.527Z,92.50
2019-05-01T07:33:20.424Z,90.34
2019-05-01T07:44:22.538Z,89.09
2019-05-01T07:55:22.188Z,89.05
2019-05-01T08:06:26.562Z,86.99
2019-05-01T08:17:24.301Z,88.16
2019-05-01T08:28:22.754Z,87.01
2019-05-01T08:39:23.380Z,85.10
2019-05-01T08:50:24.729Z,86.63
2019-05-01T09:01:26.774Z,83.26
2019-05-01T09:12:21.503Z,81.76
2019-05-01T09:23:18.222Z,79.04
2019-05-01T09:34:21.091Z,77.90
2019-05-01T09:45:21.455Z,77.36
2019-05-01T09:56:17.504Z,76.21
2019-05-01T10:07:23.848Z,73.84
2019-05-01T10:18:27.035Z,72.09
2019-05-01T10:29:31.261Z,71.77
2019-05-01T10:40:32.366Z,72.86
2019-05-01T10:51:31.245Z,71.86
2019-05-01T11:02:33.561Z,69.93
2019-05-01T11:13:32.013Z,67.82
2019-05-01T11:24:10.276Z,69.18
2019-05-01T11:34:49.789Z,68.82
2019-05-01T11:45:40.343Z,67.43
2019-05-01T11:56:19.936Z,69.39
2019-05-01T12:07:00.055Z,64.12
2019-05-01T12:17:41.970Z,65.48
2019-05-01T12:28:24.535Z,68.05
2019-05-01T12:39:05.400Z,64.62
2019-05-01T12:49:40.134Z,62.87
2019-05-01T13:00:23.162Z,63.00
2019-05-01T13:11:06.246Z,62.74
2019-05-01T13:21:50.537Z,59.68
2019-05-01T13:32:35.436Z,61.22
2019-05-01T13:43:10.301Z,62.15
2019-05-01T13:53:47.510Z,59.85
2019-05-01T14:04:29.033Z,61.77
2019-05-01T14:15:07.067Z,61.43
2019-05-01T14:25:48.086Z,60.63
2019-05-01T14:36:29.465Z,60.90
2019-05-01T14:47:05.542Z,61.44
2019-05-01T14:57:41.012Z,60.84
2019-05-01T15:08:04.053Z,67.52
2019-05-01T15:18:38.051Z,68.95
2019-05-01T15:29:34.372Z,70.16
2019-05-01T15:40:20.153Z,69.02
2019-05-01T15:51:01.103Z,68.89
2019-05-01T16:01:57.170Z,68.23
2019-05-01T16:12:56.229Z,70.39
2019-05-01T16:23:52.951Z,71.23
2019-05-01T16:34:55.471Z,74.30
2019-05-01T16:45:59.670Z,75.87
2019-05-01T16:57:01.490Z,77.28
2019-05-01T17:08:00.563Z,73.50
2019-05-01T17:18:56.016Z,73.84
2019-05-01T17:30:00.497Z,76.08
2019-05-01T17:41:03.935Z,76.72
2019-05-01T17:52:06.844Z,75.29
2019-05-01T18:03:06.168Z,76.59
2019-05-01T18:14:06.620Z,78.17
2019-05-01T18:25:03.608Z,80.80
2019-05-01T18:36:01.605Z,84.91
2019-05-01T18:46:59.425Z,90.73
2019-05-01T18:57:57.369Z,99.41
2019-05-01T19:08:54.721Z,99.05
2019-05-01T19:19:46.978Z,98.44
2019-05-01T19:30:43.889Z,95.15
2019-05-01T19:41:43.586Z,97.58
2019-05-01T19:52:42.059Z,99.99
2019-05-01T20:03:43.827Z,99.99
2019-05-01T20:14:39.743Z,99.99
2019-05-01T20:25:29.782Z,99.99
2019-05-01T20:36:32.906Z,99.99
2019-05-01T20:47:35.354Z,99.99
2019-05-01T20:58:38.797Z,99.99
2019-05-01T21:09:47.310Z,99.99
2019-05-01T21:20:39.625Z,99.99
2019-05-01T21:31:44.213Z,99.99
2019-05-01T21:42:47.381Z,99.99
2019-05-01T21:53:52.823Z,99.99
2019-05-01T22:04:56.298Z,99.99
2019-05-01T22:15:57.026Z,99.99
2019-05-01T22:26:56.438Z,99.99
2019-05-01T22:38:00.987Z,99.99
2019-05-01T22:48:54.171Z,99.99
2019-05-01T22:59:58.391Z,99.99
2019-05-01T23:11:01.576Z,99.99
2019-05-01T23:22:00.999Z,99.99
2019-05-01T23:33:01.466Z,99.99
2019-05-01T23:44:05.603Z,99.99
2019-05-01T23:55:06.358Z,99.99
